sensor_id;sensor_type;location;lat;lon;timestamp;P1;durP1;ratioP1;P2;durP2;ratioP2
80131;SDS011;69442;51.442;10.564;2023-11-21T00:01:57;1.20;;;0.90;;
80131;SDS011;69442;51.442;10.564;2023-11-21T00:04:23;3.72;;;2.20;;
80131;SDS011;69442;51.442;10.564;2023-11-21T00:06:48;1.20;;;1.10;;
80131;SDS011;69442;51.442;10.564;2023-11-21T00:09:14;3.15;;;1.30;;
80131;SDS011;69442;51.442;10.564;2023-11-21T00:11:43;5.80;;;2.05;;
80131;SDS011;69442;51.442;10.564;2023-11-21T00:14:10;3.80;;;1.67;;
80131;SDS011;69442;51.442;10.564;2023-11-21T00:16:36;1.77;;;0.90;;
80131;SDS011;69442;51.442;10.564;2023-11-21T00:19:02;2.47;;;1.83;;
80131;SDS011;69442;51.442;10.564;2023-11-21T00:21:27;4.82;;;1.98;;
80131;SDS011;69442;51.442;10.564;2023-11-21T00:23:52;3.90;;;1.48;;
80131;SDS011;69442;51.442;10.564;2023-11-21T00:26:18;3.28;;;1.88;;
80131;SDS011;69442;51.442;10.564;2023-11-21T00:28:43;4.25;;;1.77;;
80131;SDS011;69442;51.442;10.564;2023-11-21T00:31:08;2.78;;;1.20;;
80131;SDS011;69442;51.442;10.564;2023-11-21T00:33:34;4.82;;;2.67;;
80131;SDS011;69442;51.442;10.564;2023-11-21T00:35:59;7.82;;;2.97;;
80131;SDS011;69442;51.442;10.564;2023-11-21T00:38:25;2.70;;;1.20;;
80131;SDS011;69442;51.442;10.564;2023-11-21T00:40:52;4.18;;;1.52;;
80131;SDS011;69442;51.442;10.564;2023-11-21T00:43:20;2.05;;;1.52;;
80131;SDS011;69442;51.442;10.564;2023-11-21T00:45:46;4.53;;;2.28;;
80131;SDS011;69442;51.442;10.564;2023-11-21T00:48:14;10.68;;;3.97;;
80131;SDS011;69442;51.442;10.564;2023-11-21T00:50:39;2.85;;;1.77;;
80131;SDS011;69442;51.442;10.564;2023-11-21T00:53:05;8.13;;;3.30;;
80131;SDS011;69442;51.442;10.564;2023-11-21T00:55:32;7.45;;;3.28;;
80131;SDS011;69442;51.442;10.564;2023-11-21T00:57:58;6.38;;;3.13;;
80131;SDS011;69442;51.442;10.564;2023-11-21T01:00:23;7.30;;;2.42;;
80131;SDS011;69442;51.442;10.564;2023-11-21T01:02:49;6.28;;;2.92;;
80131;SDS011;69442;51.442;10.564;2023-11-21T01:05:14;4.82;;;2.90;;
80131;SDS011;69442;51.442;10.564;2023-11-21T01:07:39;3.28;;;1.85;;
80131;SDS011;69442;51.442;10.564;2023-11-21T01:10:05;2.47;;;1.38;;
80131;SDS011;69442;51.442;10.564;2023-11-21T01:12:32;4.93;;;2.20;;
80131;SDS011;69442;51.442;10.564;2023-11-21T01:15:00;3.70;;;2.10;;
80131;SDS011;69442;51.442;10.564;2023-11-21T01:17:25;2.92;;;1.50;;
80131;SDS011;69442;51.442;10.564;2023-11-21T01:19:52;4.07;;;2.42;;
80131;SDS011;69442;51.442;10.564;2023-11-21T01:22:17;5.82;;;2.53;;
80131;SDS011;69442;51.442;10.564;2023-11-21T01:24:45;9.30;;;3.67;;
80131;SDS011;69442;51.442;10.564;2023-11-21T01:27:10;4.38;;;2.60;;
80131;SDS011;69442;51.442;10.564;2023-11-21T01:29:35;7.72;;;2.88;;
80131;SDS011;69442;51.442;10.564;2023-11-21T01:32:02;5.88;;;2.70;;
80131;SDS011;69442;51.442;10.564;2023-11-21T01:34:28;10.13;;;3.67;;
80131;SDS011;69442;51.442;10.564;2023-11-21T01:36:54;6.72;;;3.17;;
80131;SDS011;69442;51.442;10.564;2023-11-21T01:39:19;5.20;;;3.28;;
80131;SDS011;69442;51.442;10.564;2023-11-21T01:41:49;5.78;;;2.90;;
80131;SDS011;69442;51.442;10.564;2023-11-21T01:44:17;6.63;;;3.03;;
80131;SDS011;69442;51.442;10.564;2023-11-21T01:46:44;5.35;;;3.10;;
80131;SDS011;69442;51.442;10.564;2023-11-21T01:49:11;5.90;;;2.63;;
80131;SDS011;69442;51.442;10.564;2023-11-21T01:51:38;5.43;;;2.85;;
80131;SDS011;69442;51.442;10.564;2023-11-21T01:54:05;4.57;;;2.63;;
80131;SDS011;69442;51.442;10.564;2023-11-21T01:56:31;7.32;;;3.00;;
80131;SDS011;69442;51.442;10.564;2023-11-21T01:58:57;10.13;;;2.50;;
80131;SDS011;69442;51.442;10.564;2023-11-21T02:01:24;6.47;;;2.55;;
80131;SDS011;69442;51.442;10.564;2023-11-21T02:03:50;6.80;;;2.50;;
80131;SDS011;69442;51.442;10.564;2023-11-21T02:06:16;5.72;;;2.65;;
80131;SDS011;69442;51.442;10.564;2023-11-21T02:08:41;3.50;;;1.30;;
80131;SDS011;69442;51.442;10.564;2023-11-21T02:11:09;4.75;;;2.42;;
80131;SDS011;69442;51.442;10.564;2023-11-21T02:13:37;1.67;;;1.10;;
80131;SDS011;69442;51.442;10.564;2023-11-21T02:16:03;4.30;;;1.50;;
80131;SDS011;69442;51.442;10.564;2023-11-21T02:18:30;2.95;;;1.42;;
80131;SDS011;69442;51.442;10.564;2023-11-21T02:20:56;2.25;;;1.80;;
80131;SDS011;69442;51.442;10.564;2023-11-21T02:23:21;2.03;;;1.10;;
80131;SDS011;69442;51.442;10.564;2023-11-21T02:25:48;5.07;;;1.92;;
80131;SDS011;69442;51.442;10.564;2023-11-21T02:28:13;4.90;;;2.70;;
80131;SDS011;69442;51.442;10.564;2023-11-21T02:30:41;3.80;;;1.80;;
80131;SDS011;69442;51.442;10.564;2023-11-21T02:33:07;6.55;;;2.70;;
80131;SDS011;69442;51.442;10.564;2023-11-21T02:35:32;5.35;;;2.70;;
80131;SDS011;69442;51.442;10.564;2023-11-21T02:37:58;6.45;;;2.95;;
80131;SDS011;69442;51.442;10.564;2023-11-21T02:40:23;3.70;;;2.78;;
80131;SDS011;69442;51.442;10.564;2023-11-21T02:42:50;5.05;;;2.80;;
80131;SDS011;69442;51.442;10.564;2023-11-21T02:45:19;6.78;;;2.88;;
80131;SDS011;69442;51.442;10.564;2023-11-21T02:47:49;1.90;;;1.10;;
80131;SDS011;69442;51.442;10.564;2023-11-21T02:50:14;6.43;;;2.63;;
80131;SDS011;69442;51.442;10.564;2023-11-21T02:52:40;2.50;;;1.50;;
80131;SDS011;69442;51.442;10.564;2023-11-21T02:55:05;3.08;;;1.20;;
80131;SDS011;69442;51.442;10.564;2023-11-21T02:57:32;7.53;;;2.50;;
80131;SDS011;69442;51.442;10.564;2023-11-21T02:59:58;5.53;;;2.28;;
80131;SDS011;69442;51.442;10.564;2023-11-21T03:02:24;7.30;;;3.10;;
80131;SDS011;69442;51.442;10.564;2023-11-21T03:04:50;8.25;;;3.25;;
80131;SDS011;69442;51.442;10.564;2023-11-21T03:07:16;9.68;;;3.53;;
80131;SDS011;69442;51.442;10.564;2023-11-21T03:09:41;5.20;;;3.00;;
80131;SDS011;69442;51.442;10.564;2023-11-21T03:12:07;4.95;;;2.88;;
80131;SDS011;69442;51.442;10.564;2023-11-21T03:14:34;3.40;;;2.45;;
80131;SDS011;69442;51.442;10.564;2023-11-21T03:17:00;5.78;;;2.55;;
80131;SDS011;69442;51.442;10.564;2023-11-21T03:19:25;4.53;;;2.72;;
80131;SDS011;69442;51.442;10.564;2023-11-21T03:21:50;8.95;;;3.20;;
80131;SDS011;69442;51.442;10.564;2023-11-21T03:24:18;3.00;;;1.20;;
80131;SDS011;69442;51.442;10.564;2023-11-21T03:26:45;8.60;;;3.42;;
80131;SDS011;69442;51.442;10.564;2023-11-21T03:29:11;3.10;;;1.95;;
80131;SDS011;69442;51.442;10.564;2023-11-21T03:31:37;3.58;;;2.17;;
80131;SDS011;69442;51.442;10.564;2023-11-21T03:34:02;10.88;;;4.10;;
80131;SDS011;69442;51.442;10.564;2023-11-21T03:36:28;12.05;;;3.97;;
80131;SDS011;69442;51.442;10.564;2023-11-21T03:38:54;11.10;;;3.90;;
80131;SDS011;69442;51.442;10.564;2023-11-21T03:41:20;8.63;;;3.58;;
80131;SDS011;69442;51.442;10.564;2023-11-21T03:43:46;6.18;;;2.63;;
80131;SDS011;69442;51.442;10.564;2023-11-21T03:46:11;11.30;;;3.45;;
80131;SDS011;69442;51.442;10.564;2023-11-21T03:48:37;9.05;;;3.05;;
80131;SDS011;69442;51.442;10.564;2023-11-21T03:51:03;6.88;;;3.50;;
80131;SDS011;69442;51.442;10.564;2023-11-21T03:53:28;10.25;;;3.50;;
80131;SDS011;69442;51.442;10.564;2023-11-21T03:55:54;7.85;;;3.30;;
80131;SDS011;69442;51.442;10.564;2023-11-21T03:58:19;5.68;;;3.35;;
80131;SDS011;69442;51.442;10.564;2023-11-21T04:00:45;12.23;;;4.10;;
80131;SDS011;69442;51.442;10.564;2023-11-21T04:03:12;8.18;;;4.28;;
80131;SDS011;69442;51.442;10.564;2023-11-21T04:05:38;9.18;;;4.00;;
80131;SDS011;69442;51.442;10.564;2023-11-21T04:08:04;8.50;;;4.15;;
80131;SDS011;69442;51.442;10.564;2023-11-21T04:10:29;9.88;;;4.03;;
80131;SDS011;69442;51.442;10.564;2023-11-21T04:12:54;11.93;;;3.85;;
80131;SDS011;69442;51.442;10.564;2023-11-21T04:15:20;8.18;;;4.05;;
80131;SDS011;69442;51.442;10.564;2023-11-21T04:17:45;6.85;;;3.17;;
80131;SDS011;69442;51.442;10.564;2023-11-21T04:20:11;7.13;;;3.65;;
80131;SDS011;69442;51.442;10.564;2023-11-21T04:22:37;6.53;;;3.45;;
80131;SDS011;69442;51.442;10.564;2023-11-21T04:25:08;4.72;;;2.92;;
80131;SDS011;69442;51.442;10.564;2023-11-21T04:27:36;6.70;;;3.28;;
80131;SDS011;69442;51.442;10.564;2023-11-21T04:30:01;3.97;;;2.50;;
80131;SDS011;69442;51.442;10.564;2023-11-21T04:32:27;7.18;;;3.38;;
80131;SDS011;69442;51.442;10.564;2023-11-21T04:34:52;12.65;;;4.55;;
80131;SDS011;69442;51.442;10.564;2023-11-21T04:37:17;6.95;;;3.83;;
80131;SDS011;69442;51.442;10.564;2023-11-21T04:39:43;10.82;;;5.00;;
80131;SDS011;69442;51.442;10.564;2023-11-21T04:42:08;5.95;;;2.92;;
80131;SDS011;69442;51.442;10.564;2023-11-21T04:44:34;9.68;;;4.28;;
80131;SDS011;69442;51.442;10.564;2023-11-21T04:46:59;10.13;;;4.20;;
80131;SDS011;69442;51.442;10.564;2023-11-21T04:49:24;7.00;;;4.55;;
80131;SDS011;69442;51.442;10.564;2023-11-21T04:51:50;7.18;;;3.78;;
80131;SDS011;69442;51.442;10.564;2023-11-21T04:54:15;9.27;;;3.75;;
80131;SDS011;69442;51.442;10.564;2023-11-21T04:56:40;8.77;;;4.03;;
80131;SDS011;69442;51.442;10.564;2023-11-21T04:59:07;2.53;;;1.77;;
80131;SDS011;69442;51.442;10.564;2023-11-21T05:01:32;7.20;;;4.07;;
80131;SDS011;69442;51.442;10.564;2023-11-21T05:03:57;7.80;;;4.05;;
80131;SDS011;69442;51.442;10.564;2023-11-21T05:06:23;7.82;;;3.65;;
80131;SDS011;69442;51.442;10.564;2023-11-21T05:08:49;8.63;;;4.40;;
80131;SDS011;69442;51.442;10.564;2023-11-21T05:11:24;8.82;;;3.83;;
80131;SDS011;69442;51.442;10.564;2023-11-21T05:13:50;2.15;;;1.85;;
80131;SDS011;69442;51.442;10.564;2023-11-21T05:16:16;10.10;;;4.05;;
80131;SDS011;69442;51.442;10.564;2023-11-21T05:18:41;2.13;;;1.90;;
80131;SDS011;69442;51.442;10.564;2023-11-21T05:21:06;10.15;;;4.15;;
80131;SDS011;69442;51.442;10.564;2023-11-21T05:23:32;7.97;;;3.63;;
80131;SDS011;69442;51.442;10.564;2023-11-21T05:25:59;3.50;;;1.80;;
80131;SDS011;69442;51.442;10.564;2023-11-21T05:28:24;5.47;;;2.33;;
80131;SDS011;69442;51.442;10.564;2023-11-21T05:30:50;8.18;;;2.85;;
80131;SDS011;69442;51.442;10.564;2023-11-21T05:33:15;8.60;;;3.00;;
80131;SDS011;69442;51.442;10.564;2023-11-21T05:35:41;1.85;;;1.50;;
80131;SDS011;69442;51.442;10.564;2023-11-21T05:38:06;7.55;;;3.80;;
80131;SDS011;69442;51.442;10.564;2023-11-21T05:40:32;7.60;;;3.50;;
80131;SDS011;69442;51.442;10.564;2023-11-21T05:42:57;12.18;;;4.85;;
80131;SDS011;69442;51.442;10.564;2023-11-21T05:45:23;10.77;;;5.25;;
80131;SDS011;69442;51.442;10.564;2023-11-21T05:47:48;10.43;;;4.22;;
80131;SDS011;69442;51.442;10.564;2023-11-21T05:50:15;12.75;;;5.03;;
80131;SDS011;69442;51.442;10.564;2023-11-21T05:52:41;10.43;;;4.90;;
80131;SDS011;69442;51.442;10.564;2023-11-21T05:55:10;11.43;;;4.82;;
80131;SDS011;69442;51.442;10.564;2023-11-21T05:57:39;9.30;;;5.13;;
80131;SDS011;69442;51.442;10.564;2023-11-21T06:00:09;10.48;;;4.70;;
80131;SDS011;69442;51.442;10.564;2023-11-21T06:02:44;4.65;;;2.15;;
80131;SDS011;69442;51.442;10.564;2023-11-21T06:05:10;10.18;;;3.75;;
80131;SDS011;69442;51.442;10.564;2023-11-21T06:07:35;5.95;;;2.85;;
80131;SDS011;69442;51.442;10.564;2023-11-21T06:10:02;17.08;;;5.55;;
80131;SDS011;69442;51.442;10.564;2023-11-21T06:12:32;10.40;;;4.32;;
80131;SDS011;69442;51.442;10.564;2023-11-21T06:15:01;10.75;;;5.43;;
80131;SDS011;69442;51.442;10.564;2023-11-21T06:17:29;12.02;;;4.80;;
80131;SDS011;69442;51.442;10.564;2023-11-21T06:19:55;12.45;;;5.10;;
80131;SDS011;69442;51.442;10.564;2023-11-21T06:22:20;13.82;;;5.93;;
80131;SDS011;69442;51.442;10.564;2023-11-21T06:24:46;7.57;;;4.40;;
80131;SDS011;69442;51.442;10.564;2023-11-21T06:27:11;12.45;;;5.47;;
80131;SDS011;69442;51.442;10.564;2023-11-21T06:29:37;14.20;;;5.35;;
80131;SDS011;69442;51.442;10.564;2023-11-21T06:32:03;6.72;;;3.20;;
80131;SDS011;69442;51.442;10.564;2023-11-21T06:34:30;19.48;;;7.18;;
80131;SDS011;69442;51.442;10.564;2023-11-21T06:36:56;15.70;;;6.30;;
80131;SDS011;69442;51.442;10.564;2023-11-21T06:39:21;16.02;;;6.35;;
80131;SDS011;69442;51.442;10.564;2023-11-21T06:41:48;13.85;;;5.65;;
80131;SDS011;69442;51.442;10.564;2023-11-21T06:44:14;11.55;;;4.53;;
80131;SDS011;69442;51.442;10.564;2023-11-21T06:46:40;18.92;;;7.05;;
80131;SDS011;69442;51.442;10.564;2023-11-21T06:49:07;9.70;;;4.63;;
80131;SDS011;69442;51.442;10.564;2023-11-21T06:51:33;10.02;;;5.15;;
80131;SDS011;69442;51.442;10.564;2023-11-21T06:53:58;15.48;;;6.60;;
80131;SDS011;69442;51.442;10.564;2023-11-21T06:56:24;19.73;;;6.47;;
80131;SDS011;69442;51.442;10.564;2023-11-21T06:58:49;19.38;;;7.47;;
80131;SDS011;69442;51.442;10.564;2023-11-21T07:01:18;21.35;;;7.72;;
80131;SDS011;69442;51.442;10.564;2023-11-21T07:03:44;22.23;;;8.68;;
80131;SDS011;69442;51.442;10.564;2023-11-21T07:06:10;16.95;;;7.50;;
80131;SDS011;69442;51.442;10.564;2023-11-21T07:08:36;19.33;;;7.72;;
80131;SDS011;69442;51.442;10.564;2023-11-21T07:11:02;16.08;;;7.60;;
80131;SDS011;69442;51.442;10.564;2023-11-21T07:13:28;15.70;;;7.10;;
80131;SDS011;69442;51.442;10.564;2023-11-21T07:15:54;16.98;;;7.30;;
80131;SDS011;69442;51.442;10.564;2023-11-21T07:18:19;12.98;;;6.07;;
80131;SDS011;69442;51.442;10.564;2023-11-21T07:20:44;9.68;;;4.45;;
80131;SDS011;69442;51.442;10.564;2023-11-21T07:23:10;14.20;;;6.57;;
80131;SDS011;69442;51.442;10.564;2023-11-21T07:25:35;13.77;;;5.85;;
80131;SDS011;69442;51.442;10.564;2023-11-21T07:28:01;7.50;;;3.22;;
80131;SDS011;69442;51.442;10.564;2023-11-21T07:30:26;15.60;;;5.95;;
80131;SDS011;69442;51.442;10.564;2023-11-21T07:32:52;11.30;;;4.82;;
80131;SDS011;69442;51.442;10.564;2023-11-21T07:35:18;9.68;;;4.85;;
80131;SDS011;69442;51.442;10.564;2023-11-21T07:37:43;14.48;;;6.03;;
80131;SDS011;69442;51.442;10.564;2023-11-21T07:40:09;8.20;;;4.22;;
80131;SDS011;69442;51.442;10.564;2023-11-21T07:42:36;27.65;;;12.30;;
80131;SDS011;69442;51.442;10.564;2023-11-21T07:45:02;22.50;;;9.82;;
80131;SDS011;69442;51.442;10.564;2023-11-21T07:47:28;29.90;;;13.63;;
80131;SDS011;69442;51.442;10.564;2023-11-21T07:49:54;23.88;;;14.25;;
80131;SDS011;69442;51.442;10.564;2023-11-21T07:52:21;43.95;;;23.98;;
80131;SDS011;69442;51.442;10.564;2023-11-21T07:54:47;54.70;;;29.92;;
80131;SDS011;69442;51.442;10.564;2023-11-21T07:57:12;13.85;;;5.63;;
80131;SDS011;69442;51.442;10.564;2023-11-21T07:59:38;26.98;;;15.35;;
80131;SDS011;69442;51.442;10.564;2023-11-21T08:02:06;17.48;;;10.93;;
80131;SDS011;69442;51.442;10.564;2023-11-21T08:04:31;57.13;;;32.35;;
80131;SDS011;69442;51.442;10.564;2023-11-21T08:06:57;22.48;;;11.68;;
80131;SDS011;69442;51.442;10.564;2023-11-21T08:09:22;18.17;;;8.85;;
80131;SDS011;69442;51.442;10.564;2023-11-21T08:11:48;6.03;;;3.63;;
80131;SDS011;69442;51.442;10.564;2023-11-21T08:14:14;13.95;;;7.85;;
80131;SDS011;69442;51.442;10.564;2023-11-21T08:16:40;52.58;;;23.77;;
80131;SDS011;69442;51.442;10.564;2023-11-21T08:19:06;28.77;;;14.32;;
80131;SDS011;69442;51.442;10.564;2023-11-21T08:21:33;16.92;;;7.63;;
80131;SDS011;69442;51.442;10.564;2023-11-21T08:23:59;60.63;;;28.45;;
80131;SDS011;69442;51.442;10.564;2023-11-21T08:26:25;34.50;;;15.27;;
80131;SDS011;69442;51.442;10.564;2023-11-21T08:28:50;14.32;;;5.93;;
80131;SDS011;69442;51.442;10.564;2023-11-21T08:31:22;21.15;;;8.95;;
80131;SDS011;69442;51.442;10.564;2023-11-21T08:33:49;17.55;;;7.95;;
80131;SDS011;69442;51.442;10.564;2023-11-21T08:36:14;62.72;;;24.13;;
80131;SDS011;69442;51.442;10.564;2023-11-21T08:38:40;92.90;;;38.47;;
80131;SDS011;69442;51.442;10.564;2023-11-21T08:41:07;12.63;;;8.07;;
80131;SDS011;69442;51.442;10.564;2023-11-21T08:43:35;13.98;;;8.05;;
80131;SDS011;69442;51.442;10.564;2023-11-21T08:46:04;15.35;;;9.07;;
80131;SDS011;69442;51.442;10.564;2023-11-21T08:48:34;9.93;;;5.78;;
80131;SDS011;69442;51.442;10.564;2023-11-21T08:51:01;6.53;;;3.67;;
80131;SDS011;69442;51.442;10.564;2023-11-21T08:53:26;8.60;;;4.20;;
80131;SDS011;69442;51.442;10.564;2023-11-21T08:55:52;10.27;;;5.68;;
80131;SDS011;69442;51.442;10.564;2023-11-21T08:58:18;8.63;;;4.28;;
80131;SDS011;69442;51.442;10.564;2023-11-21T09:00:44;9.95;;;5.03;;
80131;SDS011;69442;51.442;10.564;2023-11-21T09:03:11;9.05;;;5.15;;
80131;SDS011;69442;51.442;10.564;2023-11-21T09:05:39;7.85;;;4.40;;
80131;SDS011;69442;51.442;10.564;2023-11-21T09:08:05;4.45;;;2.15;;
80131;SDS011;69442;51.442;10.564;2023-11-21T09:10:32;5.97;;;3.20;;
80131;SDS011;69442;51.442;10.564;2023-11-21T09:13:01;3.50;;;1.98;;
80131;SDS011;69442;51.442;10.564;2023-11-21T09:15:27;6.65;;;3.75;;
80131;SDS011;69442;51.442;10.564;2023-11-21T09:17:52;6.70;;;3.65;;
80131;SDS011;69442;51.442;10.564;2023-11-21T09:20:18;7.93;;;4.80;;
80131;SDS011;69442;51.442;10.564;2023-11-21T09:22:46;7.78;;;4.07;;
80131;SDS011;69442;51.442;10.564;2023-11-21T09:25:12;7.75;;;3.58;;
80131;SDS011;69442;51.442;10.564;2023-11-21T09:27:37;6.93;;;4.05;;
80131;SDS011;69442;51.442;10.564;2023-11-21T09:30:03;9.60;;;4.88;;
80131;SDS011;69442;51.442;10.564;2023-11-21T09:32:30;8.07;;;3.95;;
80131;SDS011;69442;51.442;10.564;2023-11-21T09:34:56;5.60;;;3.10;;
80131;SDS011;69442;51.442;10.564;2023-11-21T09:37:23;6.93;;;3.90;;
80131;SDS011;69442;51.442;10.564;2023-11-21T09:39:49;5.80;;;3.45;;
80131;SDS011;69442;51.442;10.564;2023-11-21T09:42:30;5.55;;;2.83;;
80131;SDS011;69442;51.442;10.564;2023-11-21T09:48:02;3.90;;;2.53;;
80131;SDS011;69442;51.442;10.564;2023-11-21T09:50:27;3.50;;;2.28;;
80131;SDS011;69442;51.442;10.564;2023-11-21T09:53:06;3.70;;;2.45;;
80131;SDS011;69442;51.442;10.564;2023-11-21T09:55:39;3.40;;;2.20;;
80131;SDS011;69442;51.442;10.564;2023-11-21T09:58:10;5.60;;;3.10;;
80131;SDS011;69442;51.442;10.564;2023-11-21T10:00:42;6.40;;;3.45;;
80131;SDS011;69442;51.442;10.564;2023-11-21T10:03:08;4.68;;;2.83;;
80131;SDS011;69442;51.442;10.564;2023-11-21T10:05:37;4.43;;;2.83;;
80131;SDS011;69442;51.442;10.564;2023-11-21T10:08:04;3.63;;;2.20;;
80131;SDS011;69442;51.442;10.564;2023-11-21T10:10:33;4.43;;;2.40;;
80131;SDS011;69442;51.442;10.564;2023-11-21T10:13:01;3.35;;;2.67;;
80131;SDS011;69442;51.442;10.564;2023-11-21T10:15:29;5.43;;;2.60;;
80131;SDS011;69442;51.442;10.564;2023-11-21T10:17:55;4.47;;;2.90;;
80131;SDS011;69442;51.442;10.564;2023-11-21T10:20:21;5.00;;;2.55;;
80131;SDS011;69442;51.442;10.564;2023-11-21T10:22:49;4.30;;;2.70;;
80131;SDS011;69442;51.442;10.564;2023-11-21T10:25:14;4.70;;;2.80;;
80131;SDS011;69442;51.442;10.564;2023-11-21T10:27:40;4.15;;;2.45;;
80131;SDS011;69442;51.442;10.564;2023-11-21T10:30:06;2.80;;;2.03;;
80131;SDS011;69442;51.442;10.564;2023-11-21T10:32:33;2.47;;;1.88;;
80131;SDS011;69442;51.442;10.564;2023-11-21T10:34:59;2.55;;;1.75;;
80131;SDS011;69442;51.442;10.564;2023-11-21T10:37:32;2.65;;;1.65;;
80131;SDS011;69442;51.442;10.564;2023-11-21T10:40:00;2.85;;;1.77;;
80131;SDS011;69442;51.442;10.564;2023-11-21T10:42:26;3.22;;;2.20;;
80131;SDS011;69442;51.442;10.564;2023-11-21T10:44:52;4.85;;;2.20;;
80131;SDS011;69442;51.442;10.564;2023-11-21T10:47:18;2.75;;;1.45;;
80131;SDS011;69442;51.442;10.564;2023-11-21T10:49:44;7.00;;;2.70;;
80131;SDS011;69442;51.442;10.564;2023-11-21T10:52:13;2.20;;;1.70;;
80131;SDS011;69442;51.442;10.564;2023-11-21T10:54:42;3.97;;;2.30;;
80131;SDS011;69442;51.442;10.564;2023-11-21T10:57:08;5.07;;;2.45;;
80131;SDS011;69442;51.442;10.564;2023-11-21T10:59:35;3.00;;;1.88;;
80131;SDS011;69442;51.442;10.564;2023-11-21T11:02:01;5.40;;;3.25;;
80131;SDS011;69442;51.442;10.564;2023-11-21T11:04:30;7.60;;;4.88;;
80131;SDS011;69442;51.442;10.564;2023-11-21T11:07:01;15.88;;;7.57;;
80131;SDS011;69442;51.442;10.564;2023-11-21T11:09:28;6.43;;;3.53;;
80131;SDS011;69442;51.442;10.564;2023-11-21T11:11:58;6.10;;;2.67;;
80131;SDS011;69442;51.442;10.564;2023-11-21T11:14:24;6.57;;;4.32;;
80131;SDS011;69442;51.442;10.564;2023-11-21T11:16:52;6.50;;;3.92;;
80131;SDS011;69442;51.442;10.564;2023-11-21T11:19:19;5.78;;;3.45;;
80131;SDS011;69442;51.442;10.564;2023-11-21T11:24:44;4.57;;;2.60;;
80131;SDS011;69442;51.442;10.564;2023-11-21T11:27:26;5.03;;;3.17;;
80131;SDS011;69442;51.442;10.564;2023-11-21T11:35:50;8.68;;;4.38;;
80131;SDS011;69442;51.442;10.564;2023-11-21T11:38:18;11.25;;;5.18;;
80131;SDS011;69442;51.442;10.564;2023-11-21T11:40:47;7.15;;;4.90;;
80131;SDS011;69442;51.442;10.564;2023-11-21T11:43:24;13.10;;;7.22;;
80131;SDS011;69442;51.442;10.564;2023-11-21T11:45:56;7.25;;;3.30;;
80131;SDS011;69442;51.442;10.564;2023-11-21T11:48:23;6.90;;;3.78;;
80131;SDS011;69442;51.442;10.564;2023-11-21T11:53:39;5.22;;;3.28;;
80131;SDS011;69442;51.442;10.564;2023-11-21T11:56:22;10.20;;;5.95;;
80131;SDS011;69442;51.442;10.564;2023-11-21T11:58:50;5.15;;;3.35;;
80131;SDS011;69442;51.442;10.564;2023-11-21T12:01:18;5.10;;;3.10;;
80131;SDS011;69442;51.442;10.564;2023-11-21T12:03:44;6.95;;;3.20;;
80131;SDS011;69442;51.442;10.564;2023-11-21T12:06:10;4.45;;;3.17;;
80131;SDS011;69442;51.442;10.564;2023-11-21T12:08:36;8.10;;;4.03;;
80131;SDS011;69442;51.442;10.564;2023-11-21T12:11:02;6.20;;;4.03;;
80131;SDS011;69442;51.442;10.564;2023-11-21T12:13:29;5.25;;;2.70;;
80131;SDS011;69442;51.442;10.564;2023-11-21T12:15:54;5.28;;;2.58;;
80131;SDS011;69442;51.442;10.564;2023-11-21T12:18:20;2.38;;;1.70;;
80131;SDS011;69442;51.442;10.564;2023-11-21T12:20:46;2.25;;;1.60;;
80131;SDS011;69442;51.442;10.564;2023-11-21T12:23:13;1.85;;;1.45;;
80131;SDS011;69442;51.442;10.564;2023-11-21T12:25:42;2.10;;;1.80;;
80131;SDS011;69442;51.442;10.564;2023-11-21T12:28:08;3.45;;;1.90;;
80131;SDS011;69442;51.442;10.564;2023-11-21T12:30:34;3.08;;;1.90;;
80131;SDS011;69442;51.442;10.564;2023-11-21T12:33:06;2.00;;;1.80;;
80131;SDS011;69442;51.442;10.564;2023-11-21T12:35:34;2.38;;;1.40;;
80131;SDS011;69442;51.442;10.564;2023-11-21T12:38:00;2.72;;;2.40;;
80131;SDS011;69442;51.442;10.564;2023-11-21T12:40:34;4.18;;;2.25;;
80131;SDS011;69442;51.442;10.564;2023-11-21T12:42:59;2.60;;;2.22;;
80131;SDS011;69442;51.442;10.564;2023-11-21T12:45:26;4.45;;;3.10;;
80131;SDS011;69442;51.442;10.564;2023-11-21T12:50:33;4.75;;;3.47;;
80131;SDS011;69442;51.442;10.564;2023-11-21T12:53:02;7.03;;;3.83;;
80131;SDS011;69442;51.442;10.564;2023-11-21T12:55:33;5.85;;;3.30;;
80131;SDS011;69442;51.442;10.564;2023-11-21T12:58:03;7.00;;;3.97;;
80131;SDS011;69442;51.442;10.564;2023-11-21T13:00:39;5.47;;;3.47;;
80131;SDS011;69442;51.442;10.564;2023-11-21T13:03:08;6.57;;;5.03;;
80131;SDS011;69442;51.442;10.564;2023-11-21T13:05:37;6.55;;;4.53;;
80131;SDS011;69442;51.442;10.564;2023-11-21T13:08:05;7.30;;;4.53;;
80131;SDS011;69442;51.442;10.564;2023-11-21T13:10:38;8.75;;;5.53;;
80131;SDS011;69442;51.442;10.564;2023-11-21T13:13:07;7.88;;;4.85;;
80131;SDS011;69442;51.442;10.564;2023-11-21T13:15:34;9.27;;;5.40;;
80131;SDS011;69442;51.442;10.564;2023-11-21T13:18:03;6.00;;;4.30;;
80131;SDS011;69442;51.442;10.564;2023-11-21T13:20:28;8.10;;;4.97;;
80131;SDS011;69442;51.442;10.564;2023-11-21T13:22:57;8.55;;;5.05;;
80131;SDS011;69442;51.442;10.564;2023-11-21T13:25:25;8.70;;;5.82;;
80131;SDS011;69442;51.442;10.564;2023-11-21T13:27:56;9.35;;;5.45;;
80131;SDS011;69442;51.442;10.564;2023-11-21T13:30:22;7.35;;;4.82;;
80131;SDS011;69442;51.442;10.564;2023-11-21T13:32:52;8.20;;;5.63;;
80131;SDS011;69442;51.442;10.564;2023-11-21T13:35:22;7.85;;;5.25;;
80131;SDS011;69442;51.442;10.564;2023-11-21T13:38:09;10.25;;;5.82;;
80131;SDS011;69442;51.442;10.564;2023-11-21T13:40:36;9.20;;;5.40;;
80131;SDS011;69442;51.442;10.564;2023-11-21T13:43:10;7.57;;;4.80;;
80131;SDS011;69442;51.442;10.564;2023-11-21T13:45:38;10.32;;;5.82;;
80131;SDS011;69442;51.442;10.564;2023-11-21T13:48:05;8.93;;;5.78;;
80131;SDS011;69442;51.442;10.564;2023-11-21T13:50:35;9.23;;;4.82;;
80131;SDS011;69442;51.442;10.564;2023-11-21T13:53:01;9.85;;;5.57;;
80131;SDS011;69442;51.442;10.564;2023-11-21T13:55:41;6.65;;;4.55;;
80131;SDS011;69442;51.442;10.564;2023-11-21T13:58:07;11.40;;;5.07;;
80131;SDS011;69442;51.442;10.564;2023-11-21T14:00:36;7.43;;;4.65;;
80131;SDS011;69442;51.442;10.564;2023-11-21T14:03:25;7.32;;;4.63;;
80131;SDS011;69442;51.442;10.564;2023-11-21T14:06:03;7.15;;;4.40;;
80131;SDS011;69442;51.442;10.564;2023-11-21T14:08:36;8.73;;;5.18;;
80131;SDS011;69442;51.442;10.564;2023-11-21T14:11:02;9.95;;;6.25;;
80131;SDS011;69442;51.442;10.564;2023-11-21T14:13:29;7.50;;;4.72;;
80131;SDS011;69442;51.442;10.564;2023-11-21T14:15:55;7.35;;;4.65;;
80131;SDS011;69442;51.442;10.564;2023-11-21T14:18:24;5.25;;;3.58;;
80131;SDS011;69442;51.442;10.564;2023-11-21T14:20:59;6.55;;;4.35;;
80131;SDS011;69442;51.442;10.564;2023-11-21T14:23:25;5.57;;;3.70;;
80131;SDS011;69442;51.442;10.564;2023-11-21T14:25:50;7.55;;;4.47;;
80131;SDS011;69442;51.442;10.564;2023-11-21T14:28:16;7.85;;;4.38;;
80131;SDS011;69442;51.442;10.564;2023-11-21T14:30:42;8.43;;;4.43;;
80131;SDS011;69442;51.442;10.564;2023-11-21T14:33:08;6.50;;;4.63;;
80131;SDS011;69442;51.442;10.564;2023-11-21T14:35:36;7.20;;;4.93;;
80131;SDS011;69442;51.442;10.564;2023-11-21T14:38:01;6.93;;;4.45;;
80131;SDS011;69442;51.442;10.564;2023-11-21T14:40:29;6.47;;;4.10;;
80131;SDS011;69442;51.442;10.564;2023-11-21T14:43:04;9.63;;;6.18;;
80131;SDS011;69442;51.442;10.564;2023-11-21T14:45:32;8.90;;;5.80;;
80131;SDS011;69442;51.442;10.564;2023-11-21T14:47:58;7.63;;;4.72;;